Randolph C — WDI2573 — position and weather

sailwx.info

Track history (hours):
 
Tides and Currents Weather Stations Pressure Air Temp Water Temp Dewpoint Dewpoint Depression Visibility Wind Speed Wind Dir Waves Ship Positions

Randolph C

Owner: D&S Marine Service LLC, Houma, LA. More information available from US FCC via Universal Licensing System and Coast Guard Vessel Documentation Center.

Last reported at 2018-Jun-12 02:12 UTC. Time now 2018-Jun-17 22:09 UTC.
Position N 29°42' W 095°01'.

Length 205 m; draft 3 m.

Type: . MMSI: 367679550.

Date/timePositionNaut miles runAvg speedWind from/ knotsBaromVisibWave heightAir tempDewpointWater temp
2018-Jun-12 02:12N 29°42' W 095°01'1 5.4
2018-Jun-12 01:59N 29°42' W 094°60'3 5.8
2018-Jun-12 01:31N 29°40' W 094°58'3 6.0
2018-Jun-12 00:59N 29°37' W 094°57'3 5.8
2018-Jun-12 00:30N 29°34' W 094°55'11 5.6
2018-Jun-11 22:31N 29°25' W 094°49'3 4.9
2018-Jun-11 21:59N 29°22' W 094°48'2 4.4
2018-Jun-11 21:29N 29°24' W 094°46'3 5.2
2018-Jun-11 20:57N 29°25' W 094°43'2 4.3
2018-Jun-11 20:23N 29°27' W 094°41'12 4.4
2018-Jun-11 17:41N 29°32' W 094°29'1 4.8
2018-Jun-11 17:25N 29°33' W 094°28'2 4.2
2018-Jun-11 16:58N 29°34' W 094°26'2 3.5
2018-Jun-11 16:20N 29°36' W 094°24'1 3.9
2018-Jun-11 15:59N 29°36' W 094°23'2 4.3
2018-Jun-11 15:28N 29°37' W 094°21'2 4.3
2018-Jun-11 15:00N 29°38' W 094°19'2 4.2
2018-Jun-11 14:29N 29°39' W 094°16'2 4.3
2018-Jun-11 14:01N 29°40' W 094°14'2 4.3
2018-Jun-11 13:30N 29°41' W 094°12'2 4.4
2018-Jun-11 13:01N 29°41' W 094°10'2 4.6
2018-Jun-11 12:30N 29°43' W 094°08'2 4.6
2018-Jun-11 12:01N 29°44' W 094°06'2 4.7
2018-Jun-11 11:31N 29°46' W 094°03'2 4.9
2018-Jun-11 11:01N 29°47' W 094°01'2 5.0
2018-Jun-11 10:31N 29°49' W 093°59'2 4.1
2018-Jun-11 10:01N 29°50' W 093°57'2 4.3
2018-Jun-11 09:31N 29°52' W 093°56'2 4.5
2018-Jun-11 09:01N 29°54' W 093°54'2 4.5
2018-Jun-11 08:30N 29°56' W 093°53'2 4.8
2018-Jun-11 08:01N 29°58' W 093°51'2 4.8
2018-Jun-11 07:31N 29°59' W 093°49'3 5.4
2018-Jun-11 07:01N 29°60' W 093°46'3 5.1
2018-Jun-11 06:30N 30°02' W 093°44'2 4.8
2018-Jun-11 06:00N 30°03' W 093°42'3 5.2
2018-Jun-11 05:31N 30°04' W 093°39'2 5.0
2018-Jun-11 05:01N 30°04' W 093°36'2 4.3
2018-Jun-11 04:29N 30°04' W 093°34'2 3.6
2018-Jun-11 04:00N 30°04' W 093°32'2 4.3
2018-Jun-11 03:30N 30°04' W 093°29'2 4.2
2018-Jun-11 03:01N 30°04' W 093°27'2 4.1
2018-Jun-11 02:31N 30°04' W 093°24'2 3.9
2018-Jun-11 02:01N 30°04' W 093°22'2 3.3
2018-Jun-11 01:30N 30°04' W 093°20'2 3.6
2018-Jun-11 01:00N 30°06' W 093°20'2 4.1
2018-Jun-11 00:30N 30°08' W 093°20'0 0.5
2018-Jun-11 00:00N 30°08' W 093°20'0 0.5
2018-Jun-10 23:30N 30°08' W 093°19'0 0.0
2018-Jun-10 23:00N 30°08' W 093°19'0 0.0
2018-Jun-10 22:30N 30°08' W 093°19'0 0.0
2018-Jun-10 22:00N 30°08' W 093°19'0 0.0
2018-Jun-10 21:30N 30°08' W 093°19'0 0.0
2018-Jun-10 21:00N 30°08' W 093°19'0 0.0
2018-Jun-10 20:30N 30°08' W 093°19'0 0.0
2018-Jun-10 20:00N 30°08' W 093°19'0 0.0
2018-Jun-10 19:30N 30°08' W 093°19'0 0.0
2018-Jun-10 19:00N 30°08' W 093°19'0 0.0
2018-Jun-10 18:30N 30°08' W 093°19'0 0.0
2018-Jun-10 17:59N 30°08' W 093°19'0 0.0
2018-Jun-10 17:30N 30°08' W 093°19'0 0.0
2018-Jun-10 17:00N 30°08' W 093°19'0 0.0
2018-Jun-10 16:30N 30°08' W 093°19'0 0.0
2018-Jun-10 16:00N 30°08' W 093°19'0 0.0
2018-Jun-10 15:30N 30°08' W 093°19'0 0.0
2018-Jun-10 15:00N 30°08' W 093°19'0 0.0
2018-Jun-10 14:30N 30°08' W 093°19'0 0.0
2018-Jun-10 13:30N 30°08' W 093°19'0 0.0
2018-Jun-10 13:00N 30°08' W 093°19'0 0.0
2018-Jun-10 12:30N 30°08' W 093°19'0 0.0
2018-Jun-10 12:00N 30°08' W 093°19'0 0.0
2018-Jun-10 11:30N 30°08' W 093°19'0 0.0
2018-Jun-10 11:00N 30°08' W 093°19'0 0.0
2018-Jun-10 10:30N 30°08' W 093°19'0 0.0
2018-Jun-10 10:00N 30°08' W 093°19'0 0.0
2018-Jun-10 09:30N 30°08' W 093°19'0 0.0
2018-Jun-10 09:00N 30°08' W 093°19'0 0.0
2018-Jun-10 08:30N 30°08' W 093°19'0 0.0
2018-Jun-10 08:00N 30°08' W 093°19'0 0.0
2018-Jun-10 07:30N 30°08' W 093°19'0 0.0
2018-Jun-10 07:00N 30°08' W 093°19'0 0.0
2018-Jun-10 06:30N 30°08' W 093°19'0 0.0
2018-Jun-10 06:00N 30°08' W 093°19'0 0.0
2018-Jun-10 05:30N 30°08' W 093°19'0 0.0
2018-Jun-10 05:00N 30°08' W 093°19'0 0.0
2018-Jun-10 04:30N 30°08' W 093°19'0 0.0
2018-Jun-10 04:00N 30°08' W 093°19'0 0.3
2018-Jun-10 03:30N 30°08' W 093°19'0 0.0
2018-Jun-10 03:00N 30°08' W 093°19'0 0.0
2018-Jun-10 02:30N 30°08' W 093°19'0 0.0
2018-Jun-10 02:00N 30°08' W 093°19'0 0.0
2018-Jun-10 01:30N 30°08' W 093°19'0 0.0
2018-Jun-10 01:00N 30°08' W 093°19'0 0.0
2018-Jun-10 00:30N 30°08' W 093°19'0 0.0
2018-Jun-10 00:00N 30°08' W 093°19'2 3.8
2018-Jun-09 23:30N 30°06' W 093°20'2 4.3
2018-Jun-09 23:00N 30°04' W 093°21'1 1.8
2018-Jun-09 22:30N 30°04' W 093°21'3 5.3
2018-Jun-09 22:00N 30°04' W 093°24'3 5.5
2018-Jun-09 21:29N 30°04' W 093°28'3 5.5
2018-Jun-09 21:00N 30°04' W 093°31'3 5.5
2018-Jun-09 20:30N 30°04' W 093°34'3 5.7
2018-Jun-09 20:00N 30°04' W 093°37'3 5.7
2018-Jun-09 19:30N 30°04' W 093°41'3 5.8
2018-Jun-09 19:00N 30°03' W 093°44'3 6.5
2018-Jun-09 18:30N 30°00' W 093°46'3 6.6
2018-Jun-09 18:00N 29°59' W 093°49'3 5.9
2018-Jun-09 17:30N 29°57' W 093°52'3 6.8
2018-Jun-09 17:00N 29°54' W 093°54'3 6.7
2018-Jun-09 16:30N 29°51' W 093°57'3 5.7
2018-Jun-09 16:00N 29°49' W 093°59'3 3.5
2018-Jun-09 15:00N 29°47' W 094°02'3 6.0
2018-Jun-09 14:30N 29°45' W 094°04'3 6.2
2018-Jun-09 14:00N 29°43' W 094°07'3 5.9
2018-Jun-09 13:30N 29°41' W 094°10'3 5.7
2018-Jun-09 13:00N 29°40' W 094°13'3 5.6
2018-Jun-09 12:30N 29°39' W 094°16'3 5.4
2018-Jun-09 12:00N 29°38' W 094°19'2 3.4
2018-Jun-09 11:30N 29°37' W 094°20'3 5.1
2018-Jun-09 11:00N 29°36' W 094°23'2 3.4
2018-Jun-09 10:28N 29°35' W 094°25'2 4.1
2018-Jun-09 10:00N 29°34' W 094°27'3 5.2
2018-Jun-09 09:30N 29°32' W 094°29'3 5.6
2018-Jun-09 08:54N 29°30' W 094°32'2 5.8
2018-Jun-09 08:28N 29°29' W 094°35'14 5.7
2018-Jun-09 06:06N 29°22' W 094°48'1 4.3
2018-Jun-09 05:54N 29°23' W 094°49'2 5.2
2018-Jun-09 05:25N 29°25' W 094°50'3 6.2
2018-Jun-09 04:52N 29°29' W 094°51'4 6.7
2018-Jun-09 04:12N 29°32' W 094°54'1 6.6
2018-Jun-09 03:59N 29°34' W 094°55'3 6.6
2018-Jun-09 03:29N 29°36' W 094°57'3 6.9
2018-Jun-09 03:00N 29°40' W 094°58'3 6.7
2018-Jun-09 02:30N 29°42' W 095°01'3 6.0
2018-Jun-09 02:00N 29°44' W 095°03'3 5.5
2018-Jun-09 01:28N 29°47' W 095°04'1 0.1
2018-Jun-08 09:02N 29°47' W 095°05'0 0.3
2018-Jun-08 08:56N 29°47' W 095°05'5 2.8
2018-Jun-08 07:05N 29°45' W 095°11'2 5.3
2018-Jun-08 06:38N 29°43' W 095°13'1 2.1
2018-Jun-08 06:13N 29°43' W 095°14'0 0.1
2018-Jun-08 05:56N 29°43' W 095°14'0 0.1
2018-Jun-08 05:24N 29°43' W 095°14'0 0.0
2018-Jun-08 04:55N 29°43' W 095°14'0 0.8
2018-Jun-08 04:29N 29°44' W 095°14'2 3.2
2018-Jun-08 04:00N 29°44' W 095°12'3 5.4
2018-Jun-08 03:27N 29°44' W 095°09'3 5.7
2018-Jun-08 03:00N 29°45' W 095°06'1 0.4
2018-Jun-08 01:11N 29°46' W 095°06'1 3.7
2018-Jun-08 00:57N 29°46' W 095°05'2 0.1
2018-Jun-07 09:53N 29°47' W 095°04'0 0.0
2018-Jun-07 09:29N 29°47' W 095°04'0 0.0
2018-Jun-07 09:00N 29°47' W 095°04'0 0.0
2018-Jun-07 08:30N 29°47' W 095°04'0 0.0
2018-Jun-07 07:59N 29°47' W 095°04'0 0.0
2018-Jun-07 07:30N 29°47' W 095°04'0 0.0
2018-Jun-07 06:58N 29°47' W 095°04'0 0.0
2018-Jun-07 06:30N 29°47' W 095°04'0 0.0
2018-Jun-07 05:58N 29°47' W 095°04'0 0.0
2018-Jun-07 05:30N 29°47' W 095°04'0 0.0
2018-Jun-07 04:57N 29°47' W 095°04'0 0.0
2018-Jun-07 04:30N 29°47' W 095°04'0 0.0
2018-Jun-07 04:00N 29°47' W 095°04'0 0.0
2018-Jun-07 03:29N 29°47' W 095°04'0 0.0
2018-Jun-07 03:00N 29°47' W 095°04'0 0.0
2018-Jun-07 02:27N 29°47' W 095°04'0 0.0
2018-Jun-07 01:59N 29°47' W 095°04'9 0.7
2018-Jun-06 13:06N 29°44' W 095°14'0 0.0
2018-Jun-06 12:43N 29°44' W 095°14'0 0.0
2018-Jun-06 08:21N 29°44' W 095°14'0 0.0
2018-Jun-06 04:29N 29°44' W 095°14'0 0.0
2018-Jun-06 02:48N 29°44' W 095°14'7 0.3
2018-Jun-05 05:56N 29°46' W 095°06'0 0.0
2018-Jun-05 05:00N 29°46' W 095°06'0 0.0
2018-Jun-04 13:26N 29°46' W 095°06'0 0.0
2018-Jun-04 11:09N 29°46' W 095°07'1 0.1
2018-Jun-04 02:42N 29°46' W 095°05'1 0.1
2018-Jun-03 15:14N 29°47' W 095°05'1 4.2
2018-Jun-03 14:59N 29°46' W 095°05'1 0.5
2018-Jun-03 12:21N 29°45' W 095°06'1 2.0
2018-Jun-03 11:47N 29°46' W 095°06'0 0.1
2018-Jun-03 11:22N 29°46' W 095°06'1 2.4
2018-Jun-03 10:54N 29°45' W 095°06'1 2.5
2018-Jun-03 10:29N 29°46' W 095°06'0 0.0
2018-Jun-03 09:59N 29°46' W 095°06'0 0.0
2018-Jun-03 09:30N 29°46' W 095°06'0 0.1
2018-Jun-03 08:59N 29°46' W 095°06'2 3.4
2018-Jun-03 08:30N 29°47' W 095°04'0 0.1
2018-Jun-03 07:58N 29°47' W 095°04'0 0.1
2018-Jun-03 07:27N 29°47' W 095°04'1 2.6
2018-Jun-03 07:00N 29°46' W 095°05'3 5.5
2018-Jun-03 06:30N 29°44' W 095°07'3 5.1
2018-Jun-03 05:56N 29°45' W 095°11'2 5.1
2018-Jun-03 05:29N 29°44' W 095°13'1 2.3
2018-Jun-03 04:59N 29°43' W 095°14'0 0.1
2018-Jun-03 04:24N 29°43' W 095°14'0 0.0
2018-Jun-03 04:00N 29°43' W 095°14'0 0.0
2018-Jun-03 03:30N 29°43' W 095°14'0 0.0
2018-Jun-03 02:59N 29°43' W 095°14'0 0.0
2018-Jun-02 12:42N 29°44' W 095°14'2 4.6
2018-Jun-02 12:15N 29°45' W 095°12'2 6.2
2018-Jun-02 12:00N 29°45' W 095°10'3 5.7
2018-Jun-02 11:26N 29°45' W 095°06'2 0.4
2018-Jun-02 07:35N 29°46' W 095°05'0 2.4
2018-Jun-02 07:28N 29°46' W 095°05'2 3.3
2018-Jun-02 06:58N 29°44' W 095°04'2 3.3
2018-Jun-02 06:28N 29°44' W 095°02'1 3.2
2018-Jun-02 06:00N 29°42' W 095°01'  
Track history (hours):
 
Tides and Currents Weather Stations Pressure Air Temp Water Temp Dewpoint Dewpoint Depression Visibility Wind Speed Wind Dir Waves Ship Positions

Randolph C

Owner: D&S Marine Service LLC, Houma, LA. More information available from US FCC via Universal Licensing System and Coast Guard Vessel Documentation Center.

Last reported at 2018-Jun-12 02:12 UTC. Time now 2018-Jun-17 22:09 UTC.
Position N 29°42' W 095°01'.

Length 205 m; draft 3 m.

Type: . MMSI: 367679550.

Date/timePositionNaut miles runAvg speedWind from/ knotsBaromVisibWave heightAir tempDewpointWater temp
2018-Jun-12 02:12N 29°42' W 095°01'1 5.4
2018-Jun-12 01:59N 29°42' W 094°60'3 5.8
2018-Jun-12 01:31N 29°40' W 094°58'3 6.0
2018-Jun-12 00:59N 29°37' W 094°57'3 5.8
2018-Jun-12 00:30N 29°34' W 094°55'11 5.6
2018-Jun-11 22:31N 29°25' W 094°49'3 4.9
2018-Jun-11 21:59N 29°22' W 094°48'2 4.4
2018-Jun-11 21:29N 29°24' W 094°46'3 5.2
2018-Jun-11 20:57N 29°25' W 094°43'2 4.3
2018-Jun-11 20:23N 29°27' W 094°41'12 4.4
2018-Jun-11 17:41N 29°32' W 094°29'1 4.8
2018-Jun-11 17:25N 29°33' W 094°28'2 4.2
2018-Jun-11 16:58N 29°34' W 094°26'2 3.5
2018-Jun-11 16:20N 29°36' W 094°24'1 3.9
2018-Jun-11 15:59N 29°36' W 094°23'2 4.3
2018-Jun-11 15:28N 29°37' W 094°21'2 4.3
2018-Jun-11 15:00N 29°38' W 094°19'2 4.2
2018-Jun-11 14:29N 29°39' W 094°16'2 4.3
2018-Jun-11 14:01N 29°40' W 094°14'2 4.3
2018-Jun-11 13:30N 29°41' W 094°12'2 4.4
2018-Jun-11 13:01N 29°41' W 094°10'2 4.6
2018-Jun-11 12:30N 29°43' W 094°08'2 4.6
2018-Jun-11 12:01N 29°44' W 094°06'2 4.7
2018-Jun-11 11:31N 29°46' W 094°03'2 4.9
2018-Jun-11 11:01N 29°47' W 094°01'2 5.0
2018-Jun-11 10:31N 29°49' W 093°59'2 4.1
2018-Jun-11 10:01N 29°50' W 093°57'2 4.3
2018-Jun-11 09:31N 29°52' W 093°56'2 4.5
2018-Jun-11 09:01N 29°54' W 093°54'2 4.5
2018-Jun-11 08:30N 29°56' W 093°53'2 4.8
2018-Jun-11 08:01N 29°58' W 093°51'2 4.8
2018-Jun-11 07:31N 29°59' W 093°49'3 5.4
2018-Jun-11 07:01N 29°60' W 093°46'3 5.1
2018-Jun-11 06:30N 30°02' W 093°44'2 4.8
2018-Jun-11 06:00N 30°03' W 093°42'3 5.2
2018-Jun-11 05:31N 30°04' W 093°39'2 5.0
2018-Jun-11 05:01N 30°04' W 093°36'2 4.3
2018-Jun-11 04:29N 30°04' W 093°34'2 3.6
2018-Jun-11 04:00N 30°04' W 093°32'2 4.3
2018-Jun-11 03:30N 30°04' W 093°29'2 4.2
2018-Jun-11 03:01N 30°04' W 093°27'2 4.1
2018-Jun-11 02:31N 30°04' W 093°24'2 3.9
2018-Jun-11 02:01N 30°04' W 093°22'2 3.3
2018-Jun-11 01:30N 30°04' W 093°20'2 3.6
2018-Jun-11 01:00N 30°06' W 093°20'2 4.1
2018-Jun-11 00:30N 30°08' W 093°20'0 0.5
2018-Jun-11 00:00N 30°08' W 093°20'0 0.5
2018-Jun-10 23:30N 30°08' W 093°19'0 0.0
2018-Jun-10 23:00N 30°08' W 093°19'0 0.0
2018-Jun-10 22:30N 30°08' W 093°19'0 0.0
2018-Jun-10 22:00N 30°08' W 093°19'0 0.0
2018-Jun-10 21:30N 30°08' W 093°19'0 0.0
2018-Jun-10 21:00N 30°08' W 093°19'0 0.0
2018-Jun-10 20:30N 30°08' W 093°19'0 0.0
2018-Jun-10 20:00N 30°08' W 093°19'0 0.0
2018-Jun-10 19:30N 30°08' W 093°19'0 0.0
2018-Jun-10 19:00N 30°08' W 093°19'0 0.0
2018-Jun-10 18:30N 30°08' W 093°19'0 0.0
2018-Jun-10 17:59N 30°08' W 093°19'0 0.0
2018-Jun-10 17:30N 30°08' W 093°19'0 0.0
2018-Jun-10 17:00N 30°08' W 093°19'0 0.0
2018-Jun-10 16:30N 30°08' W 093°19'0 0.0
2018-Jun-10 16:00N 30°08' W 093°19'0 0.0
2018-Jun-10 15:30N 30°08' W 093°19'0 0.0
2018-Jun-10 15:00N 30°08' W 093°19'0 0.0
2018-Jun-10 14:30N 30°08' W 093°19'0 0.0
2018-Jun-10 13:30N 30°08' W 093°19'0 0.0
2018-Jun-10 13:00N 30°08' W 093°19'0 0.0
2018-Jun-10 12:30N 30°08' W 093°19'0 0.0
2018-Jun-10 12:00N 30°08' W 093°19'0 0.0
2018-Jun-10 11:30N 30°08' W 093°19'0 0.0
2018-Jun-10 11:00N 30°08' W 093°19'0 0.0
2018-Jun-10 10:30N 30°08' W 093°19'0 0.0
2018-Jun-10 10:00N 30°08' W 093°19'0 0.0
2018-Jun-10 09:30N 30°08' W 093°19'0 0.0
2018-Jun-10 09:00N 30°08' W 093°19'0 0.0
2018-Jun-10 08:30N 30°08' W 093°19'0 0.0
2018-Jun-10 08:00N 30°08' W 093°19'0 0.0
2018-Jun-10 07:30N 30°08' W 093°19'0 0.0
2018-Jun-10 07:00N 30°08' W 093°19'0 0.0
2018-Jun-10 06:30N 30°08' W 093°19'0 0.0
2018-Jun-10 06:00N 30°08' W 093°19'0 0.0
2018-Jun-10 05:30N 30°08' W 093°19'0 0.0
2018-Jun-10 05:00N 30°08' W 093°19'0 0.0
2018-Jun-10 04:30N 30°08' W 093°19'0 0.0
2018-Jun-10 04:00N 30°08' W 093°19'0 0.3
2018-Jun-10 03:30N 30°08' W 093°19'0 0.0
2018-Jun-10 03:00N 30°08' W 093°19'0 0.0
2018-Jun-10 02:30N 30°08' W 093°19'0 0.0
2018-Jun-10 02:00N 30°08' W 093°19'0 0.0
2018-Jun-10 01:30N 30°08' W 093°19'0 0.0
2018-Jun-10 01:00N 30°08' W 093°19'0 0.0
2018-Jun-10 00:30N 30°08' W 093°19'0 0.0
2018-Jun-10 00:00N 30°08' W 093°19'2 3.8
2018-Jun-09 23:30N 30°06' W 093°20'2 4.3
2018-Jun-09 23:00N 30°04' W 093°21'1 1.8
2018-Jun-09 22:30N 30°04' W 093°21'3 5.3
2018-Jun-09 22:00N 30°04' W 093°24'3 5.5
2018-Jun-09 21:29N 30°04' W 093°28'3 5.5
2018-Jun-09 21:00N 30°04' W 093°31'3 5.5
2018-Jun-09 20:30N 30°04' W 093°34'3 5.7
2018-Jun-09 20:00N 30°04' W 093°37'3 5.7
2018-Jun-09 19:30N 30°04' W 093°41'3 5.8
2018-Jun-09 19:00N 30°03' W 093°44'3 6.5
2018-Jun-09 18:30N 30°00' W 093°46'3 6.6
2018-Jun-09 18:00N 29°59' W 093°49'3 5.9
2018-Jun-09 17:30N 29°57' W 093°52'3 6.8
2018-Jun-09 17:00N 29°54' W 093°54'3 6.7
2018-Jun-09 16:30N 29°51' W 093°57'3 5.7
2018-Jun-09 16:00N 29°49' W 093°59'3 3.5
2018-Jun-09 15:00N 29°47' W 094°02'3 6.0
2018-Jun-09 14:30N 29°45' W 094°04'3 6.2
2018-Jun-09 14:00N 29°43' W 094°07'3 5.9
2018-Jun-09 13:30N 29°41' W 094°10'3 5.7
2018-Jun-09 13:00N 29°40' W 094°13'3 5.6
2018-Jun-09 12:30N 29°39' W 094°16'3 5.4
2018-Jun-09 12:00N 29°38' W 094°19'2 3.4
2018-Jun-09 11:30N 29°37' W 094°20'3 5.1
2018-Jun-09 11:00N 29°36' W 094°23'2 3.4
2018-Jun-09 10:28N 29°35' W 094°25'2 4.1
2018-Jun-09 10:00N 29°34' W 094°27'3 5.2
2018-Jun-09 09:30N 29°32' W 094°29'3 5.6
2018-Jun-09 08:54N 29°30' W 094°32'2 5.8
2018-Jun-09 08:28N 29°29' W 094°35'14 5.7
2018-Jun-09 06:06N 29°22' W 094°48'1 4.3
2018-Jun-09 05:54N 29°23' W 094°49'2 5.2
2018-Jun-09 05:25N 29°25' W 094°50'3 6.2
2018-Jun-09 04:52N 29°29' W 094°51'4 6.7
2018-Jun-09 04:12N 29°32' W 094°54'1 6.6
2018-Jun-09 03:59N 29°34' W 094°55'3 6.6
2018-Jun-09 03:29N 29°36' W 094°57'3 6.9
2018-Jun-09 03:00N 29°40' W 094°58'3 6.7
2018-Jun-09 02:30N 29°42' W 095°01'3 6.0
2018-Jun-09 02:00N 29°44' W 095°03'3 5.5
2018-Jun-09 01:28N 29°47' W 095°04'1 0.1
2018-Jun-08 09:02N 29°47' W 095°05'0 0.3
2018-Jun-08 08:56N 29°47' W 095°05'5 2.8
2018-Jun-08 07:05N 29°45' W 095°11'2 5.3
2018-Jun-08 06:38N 29°43' W 095°13'1 2.1
2018-Jun-08 06:13N 29°43' W 095°14'0 0.1
2018-Jun-08 05:56N 29°43' W 095°14'0 0.1
2018-Jun-08 05:24N 29°43' W 095°14'0 0.0
2018-Jun-08 04:55N 29°43' W 095°14'0 0.8
2018-Jun-08 04:29N 29°44' W 095°14'2 3.2
2018-Jun-08 04:00N 29°44' W 095°12'3 5.4
2018-Jun-08 03:27N 29°44' W 095°09'3 5.7
2018-Jun-08 03:00N 29°45' W 095°06'1 0.4
2018-Jun-08 01:11N 29°46' W 095°06'1 3.7
2018-Jun-08 00:57N 29°46' W 095°05'2 0.1
2018-Jun-07 09:53N 29°47' W 095°04'0 0.0
2018-Jun-07 09:29N 29°47' W 095°04'0 0.0
2018-Jun-07 09:00N 29°47' W 095°04'0 0.0
2018-Jun-07 08:30N 29°47' W 095°04'0 0.0
2018-Jun-07 07:59N 29°47' W 095°04'0 0.0
2018-Jun-07 07:30N 29°47' W 095°04'0 0.0
2018-Jun-07 06:58N 29°47' W 095°04'0 0.0
2018-Jun-07 06:30N 29°47' W 095°04'0 0.0
2018-Jun-07 05:58N 29°47' W 095°04'0 0.0
2018-Jun-07 05:30N 29°47' W 095°04'0 0.0
2018-Jun-07 04:57N 29°47' W 095°04'0 0.0
2018-Jun-07 04:30N 29°47' W 095°04'0 0.0
2018-Jun-07 04:00N 29°47' W 095°04'0 0.0
2018-Jun-07 03:29N 29°47' W 095°04'0 0.0
2018-Jun-07 03:00N 29°47' W 095°04'0 0.0
2018-Jun-07 02:27N 29°47' W 095°04'0 0.0
2018-Jun-07 01:59N 29°47' W 095°04'9 0.7
2018-Jun-06 13:06N 29°44' W 095°14'0 0.0
2018-Jun-06 12:43N 29°44' W 095°14'0 0.0
2018-Jun-06 08:21N 29°44' W 095°14'0 0.0
2018-Jun-06 04:29N 29°44' W 095°14'0 0.0
2018-Jun-06 02:48N 29°44' W 095°14'7 0.3
2018-Jun-05 05:56N 29°46' W 095°06'0 0.0
2018-Jun-05 05:00N 29°46' W 095°06'0 0.0
2018-Jun-04 13:26N 29°46' W 095°06'0 0.0
2018-Jun-04 11:09N 29°46' W 095°07'1 0.1
2018-Jun-04 02:42N 29°46' W 095°05'1 0.1
2018-Jun-03 15:14N 29°47' W 095°05'1 4.2
2018-Jun-03 14:59N 29°46' W 095°05'1 0.5
2018-Jun-03 12:21N 29°45' W 095°06'1 2.0
2018-Jun-03 11:47N 29°46' W 095°06'0 0.1
2018-Jun-03 11:22N 29°46' W 095°06'1 2.4
2018-Jun-03 10:54N 29°45' W 095°06'1 2.5
2018-Jun-03 10:29N 29°46' W 095°06'0 0.0
2018-Jun-03 09:59N 29°46' W 095°06'0 0.0
2018-Jun-03 09:30N 29°46' W 095°06'0 0.1
2018-Jun-03 08:59N 29°46' W 095°06'2 3.4
2018-Jun-03 08:30N 29°47' W 095°04'0 0.1
2018-Jun-03 07:58N 29°47' W 095°04'0 0.1
2018-Jun-03 07:27N 29°47' W 095°04'1 2.6
2018-Jun-03 07:00N 29°46' W 095°05'3 5.5
2018-Jun-03 06:30N 29°44' W 095°07'3 5.1
2018-Jun-03 05:56N 29°45' W 095°11'2 5.1
2018-Jun-03 05:29N 29°44' W 095°13'1 2.3
2018-Jun-03 04:59N 29°43' W 095°14'0 0.1
2018-Jun-03 04:24N 29°43' W 095°14'0 0.0
2018-Jun-03 04:00N 29°43' W 095°14'0 0.0
2018-Jun-03 03:30N 29°43' W 095°14'0 0.0
2018-Jun-03 02:59N 29°43' W 095°14'0 0.0
2018-Jun-02 12:42N 29°44' W 095°14'2 4.6
2018-Jun-02 12:15N 29°45' W 095°12'2 6.2
2018-Jun-02 12:00N 29°45' W 095°10'3 5.7
2018-Jun-02 11:26N 29°45' W 095°06'2 0.4
2018-Jun-02 07:35N 29°46' W 095°05'0 2.4
2018-Jun-02 07:28N 29°46' W 095°05'2 3.3
2018-Jun-02 06:58N 29°44' W 095°04'2 3.3
2018-Jun-02 06:28N 29°44' W 095°02'1 3.2
2018-Jun-02 06:00N 29°42' W 095°01'  

Dump ship's entire track history